sensor_id;sensor_type;location;lat;lon;timestamp;P1;durP1;ratioP1;P2;durP2;ratioP2
64291;SDS011;50628;51.008;13.658;2022-09-04T00:00:17;8.80;;;6.23;;
64291;SDS011;50628;51.008;13.658;2022-09-04T00:05:21;10.53;;;5.10;;
64291;SDS011;50628;51.008;13.658;2022-09-04T00:10:29;6.07;;;5.00;;
64291;SDS011;50628;51.008;13.658;2022-09-04T00:15:38;5.67;;;4.60;;
64291;SDS011;50628;51.008;13.658;2022-09-04T00:20:45;10.77;;;4.97;;
64291;SDS011;50628;51.008;13.658;2022-09-04T00:25:52;9.10;;;5.27;;
64291;SDS011;50628;51.008;13.658;2022-09-04T00:31:05;5.03;;;4.50;;
64291;SDS011;50628;51.008;13.658;2022-09-04T00:36:20;9.37;;;4.07;;
64291;SDS011;50628;51.008;13.658;2022-09-04T00:41:27;11.07;;;5.10;;
64291;SDS011;50628;51.008;13.658;2022-09-04T00:46:43;7.82;;;5.75;;
64291;SDS011;50628;51.008;13.658;2022-09-04T00:52:03;7.00;;;4.25;;
64291;SDS011;50628;51.008;13.658;2022-09-04T01:03:02;7.17;;;4.33;;
64291;SDS011;50628;51.008;13.658;2022-09-04T01:08:36;7.20;;;4.40;;
64291;SDS011;50628;51.008;13.658;2022-09-04T01:13:51;6.65;;;4.30;;
64291;SDS011;50628;51.008;13.658;2022-09-04T01:19:07;10.80;;;5.20;;
64291;SDS011;50628;51.008;13.658;2022-09-04T01:30:05;13.27;;;5.37;;
64291;SDS011;50628;51.008;13.658;2022-09-04T01:35:13;8.77;;;5.50;;
64291;SDS011;50628;51.008;13.658;2022-09-04T01:40:26;7.63;;;4.50;;
64291;SDS011;50628;51.008;13.658;2022-09-04T01:45:40;5.60;;;4.03;;
64291;SDS011;50628;51.008;13.658;2022-09-04T01:50:52;5.87;;;4.20;;
64291;SDS011;50628;51.008;13.658;2022-09-04T01:56:05;8.33;;;3.53;;
64291;SDS011;50628;51.008;13.658;2022-09-04T02:01:15;8.03;;;4.27;;
64291;SDS011;50628;51.008;13.658;2022-09-04T02:06:25;9.07;;;4.47;;
64291;SDS011;50628;51.008;13.658;2022-09-04T02:11:32;6.37;;;3.90;;
64291;SDS011;50628;51.008;13.658;2022-09-04T02:16:38;7.53;;;3.87;;
64291;SDS011;50628;51.008;13.658;2022-09-04T02:22:03;9.10;;;3.97;;
64291;SDS011;50628;51.008;13.658;2022-09-04T02:27:15;5.80;;;4.43;;
64291;SDS011;50628;51.008;13.658;2022-09-04T02:32:28;7.27;;;4.30;;
64291;SDS011;50628;51.008;13.658;2022-09-04T02:37:40;9.00;;;5.00;;
64291;SDS011;50628;51.008;13.658;2022-09-04T02:42:51;4.37;;;3.97;;
64291;SDS011;50628;51.008;13.658;2022-09-04T02:48:09;8.77;;;4.20;;
64291;SDS011;50628;51.008;13.658;2022-09-04T02:53:18;5.37;;;3.17;;
64291;SDS011;50628;51.008;13.658;2022-09-04T02:58:30;3.83;;;3.20;;
64291;SDS011;50628;51.008;13.658;2022-09-04T03:03:40;8.83;;;4.13;;
64291;SDS011;50628;51.008;13.658;2022-09-04T03:08:48;5.70;;;4.80;;
64291;SDS011;50628;51.008;13.658;2022-09-04T03:13:58;6.23;;;3.87;;
64291;SDS011;50628;51.008;13.658;2022-09-04T03:19:09;5.07;;;3.77;;
64291;SDS011;50628;51.008;13.658;2022-09-04T03:24:16;7.57;;;4.33;;
64291;SDS011;50628;51.008;13.658;2022-09-04T03:29:25;5.37;;;3.57;;
64291;SDS011;50628;51.008;13.658;2022-09-04T03:34:38;4.37;;;3.73;;
64291;SDS011;50628;51.008;13.658;2022-09-04T03:39:46;4.63;;;3.63;;
64291;SDS011;50628;51.008;13.658;2022-09-04T03:44:58;6.63;;;3.40;;
64291;SDS011;50628;51.008;13.658;2022-09-04T03:50:15;4.17;;;3.30;;
64291;SDS011;50628;51.008;13.658;2022-09-04T03:55:37;8.50;;;4.23;;
64291;SDS011;50628;51.008;13.658;2022-09-04T04:00:58;4.33;;;3.93;;
64291;SDS011;50628;51.008;13.658;2022-09-04T04:06:12;8.33;;;3.60;;
64291;SDS011;50628;51.008;13.658;2022-09-04T04:11:28;6.13;;;3.50;;
64291;SDS011;50628;51.008;13.658;2022-09-04T04:16:45;4.20;;;3.57;;
64291;SDS011;50628;51.008;13.658;2022-09-04T04:21:59;5.83;;;4.07;;
64291;SDS011;50628;51.008;13.658;2022-09-04T04:27:14;7.33;;;3.87;;
64291;SDS011;50628;51.008;13.658;2022-09-04T04:32:39;5.13;;;3.87;;
64291;SDS011;50628;51.008;13.658;2022-09-04T04:38:01;5.90;;;4.20;;
64291;SDS011;50628;51.008;13.658;2022-09-04T04:43:14;8.73;;;4.57;;
64291;SDS011;50628;51.008;13.658;2022-09-04T04:48:30;5.33;;;4.00;;
64291;SDS011;50628;51.008;13.658;2022-09-04T04:54:18;4.07;;;3.67;;
64291;SDS011;50628;51.008;13.658;2022-09-04T04:59:33;6.10;;;3.70;;
64291;SDS011;50628;51.008;13.658;2022-09-04T05:04:46;5.27;;;3.83;;
64291;SDS011;50628;51.008;13.658;2022-09-04T05:09:59;6.03;;;3.60;;
64291;SDS011;50628;51.008;13.658;2022-09-04T05:15:09;6.50;;;3.70;;
64291;SDS011;50628;51.008;13.658;2022-09-04T05:20:29;7.63;;;3.73;;
64291;SDS011;50628;51.008;13.658;2022-09-04T05:25:41;10.87;;;3.70;;
64291;SDS011;50628;51.008;13.658;2022-09-04T05:30:54;7.07;;;4.20;;
64291;SDS011;50628;51.008;13.658;2022-09-04T05:36:05;6.07;;;3.40;;
64291;SDS011;50628;51.008;13.658;2022-09-04T05:41:16;4.83;;;3.77;;
64291;SDS011;50628;51.008;13.658;2022-09-04T05:46:30;12.93;;;4.10;;
64291;SDS011;50628;51.008;13.658;2022-09-04T05:51:50;4.43;;;3.67;;
64291;SDS011;50628;51.008;13.658;2022-09-04T05:57:11;6.33;;;3.87;;
64291;SDS011;50628;51.008;13.658;2022-09-04T06:02:30;7.37;;;3.47;;
64291;SDS011;50628;51.008;13.658;2022-09-04T06:07:50;9.27;;;4.47;;
64291;SDS011;50628;51.008;13.658;2022-09-04T06:13:09;6.07;;;3.80;;
64291;SDS011;50628;51.008;13.658;2022-09-04T06:18:38;4.77;;;3.77;;
64291;SDS011;50628;51.008;13.658;2022-09-04T06:24:00;4.63;;;3.42;;
64291;SDS011;50628;51.008;13.658;2022-09-04T06:29:21;3.80;;;2.90;;
64291;SDS011;50628;51.008;13.658;2022-09-04T06:34:41;6.83;;;3.57;;
64291;SDS011;50628;51.008;13.658;2022-09-04T06:39:59;4.00;;;2.90;;
64291;SDS011;50628;51.008;13.658;2022-09-04T06:45:24;8.70;;;3.33;;
64291;SDS011;50628;51.008;13.658;2022-09-04T06:50:40;10.02;;;3.00;;
64291;SDS011;50628;51.008;13.658;2022-09-04T06:55:52;8.50;;;3.30;;
64291;SDS011;50628;51.008;13.658;2022-09-04T07:01:11;5.65;;;2.90;;
64291;SDS011;50628;51.008;13.658;2022-09-04T07:06:21;5.72;;;2.78;;
64291;SDS011;50628;51.008;13.658;2022-09-04T07:11:35;12.10;;;3.80;;
64291;SDS011;50628;51.008;13.658;2022-09-04T07:16:53;4.82;;;3.33;;
64291;SDS011;50628;51.008;13.658;2022-09-04T07:22:17;5.13;;;3.10;;
64291;SDS011;50628;51.008;13.658;2022-09-04T07:27:32;4.65;;;2.85;;
64291;SDS011;50628;51.008;13.658;2022-09-04T07:32:47;3.63;;;3.20;;
64291;SDS011;50628;51.008;13.658;2022-09-04T07:37:55;11.02;;;3.33;;
64291;SDS011;50628;51.008;13.658;2022-09-04T07:43:02;7.22;;;3.15;;
64291;SDS011;50628;51.008;13.658;2022-09-04T07:48:16;7.18;;;2.65;;
64291;SDS011;50628;51.008;13.658;2022-09-04T07:53:25;9.68;;;3.08;;
64291;SDS011;50628;51.008;13.658;2022-09-04T07:58:47;4.35;;;3.50;;
64291;SDS011;50628;51.008;13.658;2022-09-04T08:04:08;10.52;;;3.45;;
64291;SDS011;50628;51.008;13.658;2022-09-04T08:09:28;7.63;;;3.17;;
64291;SDS011;50628;51.008;13.658;2022-09-04T08:14:51;9.73;;;4.30;;
64291;SDS011;50628;51.008;13.658;2022-09-04T08:19:57;4.97;;;2.90;;
64291;SDS011;50628;51.008;13.658;2022-09-04T08:25:15;3.45;;;2.75;;
64291;SDS011;50628;51.008;13.658;2022-09-04T08:30:26;4.93;;;2.90;;
64291;SDS011;50628;51.008;13.658;2022-09-04T08:35:37;6.50;;;4.20;;
64291;SDS011;50628;51.008;13.658;2022-09-04T08:40:52;8.20;;;3.97;;
64291;SDS011;50628;51.008;13.658;2022-09-04T08:46:24;8.00;;;3.25;;
64291;SDS011;50628;51.008;13.658;2022-09-04T08:52:03;6.68;;;2.97;;
64291;SDS011;50628;51.008;13.658;2022-09-04T08:57:32;3.75;;;3.25;;
64291;SDS011;50628;51.008;13.658;2022-09-04T09:08:28;7.20;;;3.67;;
64291;SDS011;50628;51.008;13.658;2022-09-04T09:13:57;26.98;;;6.88;;
64291;SDS011;50628;51.008;13.658;2022-09-04T09:19:27;7.60;;;3.45;;
64291;SDS011;50628;51.008;13.658;2022-09-04T09:30:20;3.42;;;2.60;;
64291;SDS011;50628;51.008;13.658;2022-09-04T09:52:48;5.00;;;2.60;;
64291;SDS011;50628;51.008;13.658;2022-09-04T10:04:06;3.33;;;2.20;;
64291;SDS011;50628;51.008;13.658;2022-09-04T10:15:17;5.40;;;2.20;;
64291;SDS011;50628;51.008;13.658;2022-09-04T10:26:16;5.25;;;2.42;;
64291;SDS011;50628;51.008;13.658;2022-09-04T10:31:54;3.10;;;1.85;;
64291;SDS011;50628;51.008;13.658;2022-09-04T10:37:16;6.68;;;2.53;;
64291;SDS011;50628;51.008;13.658;2022-09-04T10:42:34;7.07;;;3.05;;
64291;SDS011;50628;51.008;13.658;2022-09-04T10:48:02;3.53;;;3.13;;
64291;SDS011;50628;51.008;13.658;2022-09-04T10:59:15;3.03;;;2.20;;
64291;SDS011;50628;51.008;13.658;2022-09-04T11:10:22;2.67;;;1.55;;
64291;SDS011;50628;51.008;13.658;2022-09-04T11:15:42;3.10;;;1.88;;
64291;SDS011;50628;51.008;13.658;2022-09-04T11:21:19;4.72;;;1.92;;
64291;SDS011;50628;51.008;13.658;2022-09-04T11:32:34;5.85;;;2.15;;
64291;SDS011;50628;51.008;13.658;2022-09-04T11:43:29;16.83;;;4.13;;
64291;SDS011;50628;51.008;13.658;2022-09-04T11:48:50;5.55;;;1.70;;
64291;SDS011;50628;51.008;13.658;2022-09-04T12:00:01;2.58;;;1.35;;
64291;SDS011;50628;51.008;13.658;2022-09-04T12:05:15;8.98;;;1.98;;
64291;SDS011;50628;51.008;13.658;2022-09-04T12:16:24;2.75;;;1.65;;
64291;SDS011;50628;51.008;13.658;2022-09-04T12:27:42;5.78;;;1.70;;
64291;SDS011;50628;51.008;13.658;2022-09-04T12:44:30;2.60;;;1.45;;
64291;SDS011;50628;51.008;13.658;2022-09-04T12:49:52;3.35;;;1.67;;
64291;SDS011;50628;51.008;13.658;2022-09-04T12:55:06;5.07;;;1.50;;
64291;SDS011;50628;51.008;13.658;2022-09-04T13:00:15;1.65;;;1.38;;
64291;SDS011;50628;51.008;13.658;2022-09-04T13:05:27;3.58;;;2.28;;
64291;SDS011;50628;51.008;13.658;2022-09-04T13:10:44;3.00;;;1.65;;
64291;SDS011;50628;51.008;13.658;2022-09-04T13:15:55;3.45;;;1.48;;
64291;SDS011;50628;51.008;13.658;2022-09-04T13:21:06;2.20;;;1.15;;
64291;SDS011;50628;51.008;13.658;2022-09-04T13:26:20;8.68;;;2.35;;
64291;SDS011;50628;51.008;13.658;2022-09-04T13:31:40;6.80;;;2.00;;
64291;SDS011;50628;51.008;13.658;2022-09-04T13:36:56;2.80;;;1.33;;
64291;SDS011;50628;51.008;13.658;2022-09-04T13:42:09;6.40;;;1.50;;
64291;SDS011;50628;51.008;13.658;2022-09-04T13:47:37;3.03;;;1.50;;
64291;SDS011;50628;51.008;13.658;2022-09-04T13:52:48;5.55;;;1.80;;
64291;SDS011;50628;51.008;13.658;2022-09-04T13:57:57;3.53;;;1.77;;
64291;SDS011;50628;51.008;13.658;2022-09-04T14:03:03;3.40;;;2.22;;
64291;SDS011;50628;51.008;13.658;2022-09-04T14:08:12;6.05;;;1.95;;
64291;SDS011;50628;51.008;13.658;2022-09-04T14:13:20;4.25;;;1.60;;
64291;SDS011;50628;51.008;13.658;2022-09-04T14:18:47;5.38;;;1.83;;
64291;SDS011;50628;51.008;13.658;2022-09-04T14:23:59;14.30;;;3.15;;
64291;SDS011;50628;51.008;13.658;2022-09-04T14:29:10;3.38;;;1.60;;
64291;SDS011;50628;51.008;13.658;2022-09-04T14:34:22;3.10;;;1.83;;
64291;SDS011;50628;51.008;13.658;2022-09-04T14:39:33;2.97;;;1.30;;
64291;SDS011;50628;51.008;13.658;2022-09-04T14:44:53;3.97;;;2.30;;
64291;SDS011;50628;51.008;13.658;2022-09-04T14:50:13;3.95;;;1.77;;
64291;SDS011;50628;51.008;13.658;2022-09-04T14:55:24;5.22;;;2.13;;
64291;SDS011;50628;51.008;13.658;2022-09-04T15:00:27;5.60;;;1.92;;
64291;SDS011;50628;51.008;13.658;2022-09-04T15:05:34;4.05;;;2.17;;
64291;SDS011;50628;51.008;13.658;2022-09-04T15:10:48;3.95;;;1.75;;
64291;SDS011;50628;51.008;13.658;2022-09-04T15:15:54;3.20;;;1.83;;
64291;SDS011;50628;51.008;13.658;2022-09-04T15:21:02;6.10;;;2.30;;
64291;SDS011;50628;51.008;13.658;2022-09-04T15:26:15;9.65;;;2.40;;
64291;SDS011;50628;51.008;13.658;2022-09-04T15:31:27;3.83;;;1.98;;
64291;SDS011;50628;51.008;13.658;2022-09-04T15:36:29;3.83;;;1.77;;
64291;SDS011;50628;51.008;13.658;2022-09-04T15:41:36;7.68;;;2.10;;
64291;SDS011;50628;51.008;13.658;2022-09-04T15:46:41;3.17;;;1.98;;
64291;SDS011;50628;51.008;13.658;2022-09-04T15:51:49;2.17;;;1.88;;
64291;SDS011;50628;51.008;13.658;2022-09-04T15:57:01;3.95;;;2.10;;
64291;SDS011;50628;51.008;13.658;2022-09-04T16:02:10;3.10;;;1.73;;
64291;SDS011;50628;51.008;13.658;2022-09-04T16:07:23;2.28;;;1.85;;
64291;SDS011;50628;51.008;13.658;2022-09-04T16:12:38;4.28;;;1.98;;
64291;SDS011;50628;51.008;13.658;2022-09-04T16:17:50;5.13;;;2.22;;
64291;SDS011;50628;51.008;13.658;2022-09-04T16:22:54;3.65;;;2.08;;
64291;SDS011;50628;51.008;13.658;2022-09-04T16:28:02;4.72;;;2.63;;
64291;SDS011;50628;51.008;13.658;2022-09-04T16:33:17;4.18;;;2.22;;
64291;SDS011;50628;51.008;13.658;2022-09-04T16:38:23;4.53;;;2.38;;
64291;SDS011;50628;51.008;13.658;2022-09-04T16:43:33;10.10;;;2.83;;
64291;SDS011;50628;51.008;13.658;2022-09-04T16:48:36;10.65;;;2.60;;
64291;SDS011;50628;51.008;13.658;2022-09-04T16:53:46;4.15;;;2.28;;
64291;SDS011;50628;51.008;13.658;2022-09-04T16:58:54;3.50;;;1.92;;
64291;SDS011;50628;51.008;13.658;2022-09-04T17:09:24;6.35;;;2.50;;
64291;SDS011;50628;51.008;13.658;2022-09-04T17:14:32;6.97;;;2.22;;
64291;SDS011;50628;51.008;13.658;2022-09-04T17:19:38;4.05;;;2.20;;
64291;SDS011;50628;51.008;13.658;2022-09-04T17:24:42;3.45;;;1.83;;
64291;SDS011;50628;51.008;13.658;2022-09-04T17:29:52;4.68;;;2.53;;
64291;SDS011;50628;51.008;13.658;2022-09-04T17:35:05;5.15;;;2.35;;
64291;SDS011;50628;51.008;13.658;2022-09-04T17:40:14;5.28;;;4.47;;
64291;SDS011;50628;51.008;13.658;2022-09-04T17:45:23;5.22;;;1.95;;
64291;SDS011;50628;51.008;13.658;2022-09-04T17:50:40;3.15;;;2.65;;
64291;SDS011;50628;51.008;13.658;2022-09-04T17:55:49;3.95;;;2.72;;
64291;SDS011;50628;51.008;13.658;2022-09-04T18:00:59;5.93;;;2.70;;
64291;SDS011;50628;51.008;13.658;2022-09-04T18:06:08;9.27;;;3.67;;
64291;SDS011;50628;51.008;13.658;2022-09-04T18:11:15;6.22;;;3.10;;
64291;SDS011;50628;51.008;13.658;2022-09-04T18:21:53;7.53;;;4.15;;
64291;SDS011;50628;51.008;13.658;2022-09-04T18:26:59;8.40;;;3.33;;
64291;SDS011;50628;51.008;13.658;2022-09-04T18:32:09;22.25;;;3.97;;
64291;SDS011;50628;51.008;13.658;2022-09-04T18:37:20;8.20;;;4.57;;
64291;SDS011;50628;51.008;13.658;2022-09-04T18:42:27;9.23;;;3.58;;
64291;SDS011;50628;51.008;13.658;2022-09-04T18:47:38;7.88;;;3.78;;
64291;SDS011;50628;51.008;13.658;2022-09-04T18:52:48;5.78;;;3.30;;
64291;SDS011;50628;51.008;13.658;2022-09-04T18:58:16;9.75;;;7.15;;
64291;SDS011;50628;51.008;13.658;2022-09-04T19:03:30;9.02;;;3.80;;
64291;SDS011;50628;51.008;13.658;2022-09-04T19:08:44;5.88;;;3.97;;
64291;SDS011;50628;51.008;13.658;2022-09-04T19:13:50;7.18;;;2.90;;
64291;SDS011;50628;51.008;13.658;2022-09-04T19:19:01;9.98;;;4.15;;
64291;SDS011;50628;51.008;13.658;2022-09-04T19:24:14;5.43;;;3.60;;
64291;SDS011;50628;51.008;13.658;2022-09-04T19:29:21;7.72;;;4.22;;
64291;SDS011;50628;51.008;13.658;2022-09-04T19:34:31;6.65;;;4.20;;
64291;SDS011;50628;51.008;13.658;2022-09-04T19:39:41;8.32;;;4.07;;
64291;SDS011;50628;51.008;13.658;2022-09-04T19:44:50;11.50;;;4.05;;
64291;SDS011;50628;51.008;13.658;2022-09-04T19:49:56;6.35;;;3.72;;
64291;SDS011;50628;51.008;13.658;2022-09-04T19:55:10;8.45;;;4.15;;
64291;SDS011;50628;51.008;13.658;2022-09-04T20:00:18;6.93;;;4.40;;
64291;SDS011;50628;51.008;13.658;2022-09-04T20:05:25;9.32;;;4.65;;
64291;SDS011;50628;51.008;13.658;2022-09-04T20:10:31;4.47;;;3.88;;
64291;SDS011;50628;51.008;13.658;2022-09-04T20:15:39;20.65;;;6.55;;
64291;SDS011;50628;51.008;13.658;2022-09-04T20:20:47;4.15;;;3.67;;
64291;SDS011;50628;51.008;13.658;2022-09-04T20:25:57;6.00;;;3.95;;
64291;SDS011;50628;51.008;13.658;2022-09-04T20:36:33;5.85;;;5.25;;
64291;SDS011;50628;51.008;13.658;2022-09-04T20:41:42;6.95;;;4.55;;
64291;SDS011;50628;51.008;13.658;2022-09-04T20:46:48;20.15;;;6.28;;
64291;SDS011;50628;51.008;13.658;2022-09-04T20:51:58;7.40;;;4.32;;
64291;SDS011;50628;51.008;13.658;2022-09-04T20:57:06;7.13;;;4.75;;
64291;SDS011;50628;51.008;13.658;2022-09-04T21:02:19;8.13;;;4.10;;
64291;SDS011;50628;51.008;13.658;2022-09-04T21:07:32;7.78;;;4.80;;
64291;SDS011;50628;51.008;13.658;2022-09-04T21:12:39;5.35;;;4.35;;
64291;SDS011;50628;51.008;13.658;2022-09-04T21:17:50;5.53;;;4.57;;
64291;SDS011;50628;51.008;13.658;2022-09-04T21:23:08;8.27;;;5.40;;
64291;SDS011;50628;51.008;13.658;2022-09-04T21:28:35;7.40;;;5.25;;
64291;SDS011;50628;51.008;13.658;2022-09-04T21:33:55;6.72;;;4.72;;
64291;SDS011;50628;51.008;13.658;2022-09-04T21:39:21;5.95;;;4.82;;
64291;SDS011;50628;51.008;13.658;2022-09-04T21:55:55;12.80;;;7.82;;
64291;SDS011;50628;51.008;13.658;2022-09-04T22:01:14;7.85;;;5.32;;
64291;SDS011;50628;51.008;13.658;2022-09-04T22:06:29;7.00;;;5.50;;
64291;SDS011;50628;51.008;13.658;2022-09-04T22:11:42;8.25;;;5.63;;
64291;SDS011;50628;51.008;13.658;2022-09-04T22:22:16;8.25;;;5.47;;
64291;SDS011;50628;51.008;13.658;2022-09-04T22:27:43;7.43;;;5.32;;
64291;SDS011;50628;51.008;13.658;2022-09-04T22:33:18;5.97;;;5.38;;
64291;SDS011;50628;51.008;13.658;2022-09-04T22:38:52;10.70;;;5.90;;
64291;SDS011;50628;51.008;13.658;2022-09-04T22:44:19;8.65;;;6.35;;
64291;SDS011;50628;51.008;13.658;2022-09-04T22:49:45;7.97;;;7.15;;
64291;SDS011;50628;51.008;13.658;2022-09-04T22:55:09;8.20;;;6.82;;
64291;SDS011;50628;51.008;13.658;2022-09-04T23:00:33;8.20;;;6.15;;
64291;SDS011;50628;51.008;13.658;2022-09-04T23:11:25;10.38;;;6.55;;
64291;SDS011;50628;51.008;13.658;2022-09-04T23:22:05;9.18;;;6.28;;
64291;SDS011;50628;51.008;13.658;2022-09-04T23:27:23;8.02;;;5.97;;
64291;SDS011;50628;51.008;13.658;2022-09-04T23:32:34;8.93;;;6.75;;
64291;SDS011;50628;51.008;13.658;2022-09-04T23:38:03;6.50;;;5.63;;
64291;SDS011;50628;51.008;13.658;2022-09-04T23:44:03;8.85;;;6.10;;
64291;SDS011;50628;51.008;13.658;2022-09-04T23:49:31;12.27;;;6.43;;
64291;SDS011;50628;51.008;13.658;2022-09-04T23:54:51;7.00;;;6.30;;
